sensor_id;sensor_type;location;lat;lon;timestamp;pressure;altitude;pressure_sealevel;temperature;humidity
23419;BME280;11882;42.522;27.458;2022-08-05T00:01:27;101082.25;;;24.64;76.89
23419;BME280;11882;42.522;27.458;2022-08-05T00:03:54;101075.69;;;24.60;77.34
23419;BME280;11882;42.522;27.458;2022-08-05T00:06:21;101071.84;;;24.56;77.61
23419;BME280;11882;42.522;27.458;2022-08-05T00:08:48;101078.63;;;24.54;77.66
23419;BME280;11882;42.522;27.458;2022-08-05T00:11:15;101067.19;;;24.52;77.78
23419;BME280;11882;42.522;27.458;2022-08-05T00:13:43;101068.28;;;24.51;77.90
23419;BME280;11882;42.522;27.458;2022-08-05T00:16:13;101072.91;;;24.50;78.24
23419;BME280;11882;42.522;27.458;2022-08-05T00:18:43;101072.09;;;24.50;78.39
23419;BME280;11882;42.522;27.458;2022-08-05T00:21:11;101068.53;;;24.49;78.57
23419;BME280;11882;42.522;27.458;2022-08-05T00:23:39;101059.81;;;24.47;78.63
23419;BME280;11882;42.522;27.458;2022-08-05T00:26:07;101072.03;;;24.45;78.75
23419;BME280;11882;42.522;27.458;2022-08-05T00:28:34;101059.50;;;24.38;79.15
23419;BME280;11882;42.522;27.458;2022-08-05T00:31:02;101070.31;;;24.33;79.20
23419;BME280;11882;42.522;27.458;2022-08-05T00:33:30;101063.50;;;24.31;79.36
23419;BME280;11882;42.522;27.458;2022-08-05T00:35:57;101062.94;;;24.29;79.06
23419;BME280;11882;42.522;27.458;2022-08-05T00:38:25;101058.59;;;24.28;79.38
23419;BME280;11882;42.522;27.458;2022-08-05T00:40:54;101058.00;;;24.26;79.63
23419;BME280;11882;42.522;27.458;2022-08-05T00:43:21;101052.56;;;24.26;80.04
23419;BME280;11882;42.522;27.458;2022-08-05T00:45:48;101049.28;;;24.24;80.07
23419;BME280;11882;42.522;27.458;2022-08-05T00:48:16;101055.25;;;24.21;80.14
23419;BME280;11882;42.522;27.458;2022-08-05T00:50:46;101053.03;;;24.18;79.93
23419;BME280;11882;42.522;27.458;2022-08-05T00:53:15;101054.63;;;24.14;80.29
23419;BME280;11882;42.522;27.458;2022-08-05T00:55:43;101058.13;;;24.09;80.26
23419;BME280;11882;42.522;27.458;2022-08-05T00:58:10;101047.47;;;24.02;80.44
23419;BME280;11882;42.522;27.458;2022-08-05T01:00:38;101052.03;;;23.97;80.81
23419;BME280;11882;42.522;27.458;2022-08-05T01:03:06;101054.72;;;23.92;80.76
23419;BME280;11882;42.522;27.458;2022-08-05T01:05:32;101048.16;;;23.88;80.86
23419;BME280;11882;42.522;27.458;2022-08-05T01:08:01;101048.91;;;23.83;81.36
23419;BME280;11882;42.522;27.458;2022-08-05T01:10:33;101048.91;;;23.83;81.36
23419;BME280;11882;42.522;27.458;2022-08-05T01:13:07;101051.34;;;23.79;81.54
23419;BME280;11882;42.522;27.458;2022-08-05T01:15:41;101049.13;;;23.76;82.10
23419;BME280;11882;42.522;27.458;2022-08-05T01:18:13;101050.22;;;23.75;82.93
23419;BME280;11882;42.522;27.458;2022-08-05T01:20:49;101040.09;;;23.71;83.07
23419;BME280;11882;42.522;27.458;2022-08-05T01:23:28;101043.09;;;23.69;83.31
23419;BME280;11882;42.522;27.458;2022-08-05T01:26:22;101041.69;;;23.67;83.91
23419;BME280;11882;42.522;27.458;2022-08-05T01:28:56;101049.03;;;23.66;83.50
23419;BME280;11882;42.522;27.458;2022-08-05T01:31:31;101043.59;;;23.66;83.60
23419;BME280;11882;42.522;27.458;2022-08-05T01:34:04;101039.25;;;23.65;83.68
23419;BME280;11882;42.522;27.458;2022-08-05T01:36:37;101041.13;;;23.65;84.21
23419;BME280;11882;42.522;27.458;2022-08-05T01:39:06;101039.44;;;23.59;83.66
23419;BME280;11882;42.522;27.458;2022-08-05T01:41:34;101035.81;;;23.53;83.77
23419;BME280;11882;42.522;27.458;2022-08-05T01:44:05;101035.59;;;23.55;83.24
23419;BME280;11882;42.522;27.458;2022-08-05T01:46:34;101038.53;;;23.53;83.13
23419;BME280;11882;42.522;27.458;2022-08-05T01:49:02;101033.34;;;23.52;82.77
23419;BME280;11882;42.522;27.458;2022-08-05T01:51:32;101029.25;;;23.49;81.99
23419;BME280;11882;42.522;27.458;2022-08-05T01:54:04;101033.03;;;23.48;81.28
23419;BME280;11882;42.522;27.458;2022-08-05T01:56:37;101039.50;;;23.42;81.27
23419;BME280;11882;42.522;27.458;2022-08-05T01:59:08;101040.25;;;23.37;81.66
23419;BME280;11882;42.522;27.458;2022-08-05T02:01:36;101033.19;;;23.36;81.04
23419;BME280;11882;42.522;27.458;2022-08-05T02:04:04;101039.44;;;23.37;81.38
23419;BME280;11882;42.522;27.458;2022-08-05T02:06:32;101034.53;;;23.34;82.16
23419;BME280;11882;42.522;27.458;2022-08-05T02:09:00;101034.53;;;23.34;82.26
23419;BME280;11882;42.522;27.458;2022-08-05T02:11:35;101036.91;;;23.30;82.80
23419;BME280;11882;42.522;27.458;2022-08-05T02:14:10;101032.75;;;23.23;83.52
23419;BME280;11882;42.522;27.458;2022-08-05T02:16:43;101028.34;;;23.17;83.46
23419;BME280;11882;42.522;27.458;2022-08-05T02:19:17;101022.84;;;23.11;83.31
23419;BME280;11882;42.522;27.458;2022-08-05T02:21:50;101022.28;;;23.09;84.17
23419;BME280;11882;42.522;27.458;2022-08-05T02:24:21;101022.28;;;23.09;83.36
23419;BME280;11882;42.522;27.458;2022-08-05T02:26:51;101026.31;;;23.07;83.58
23419;BME280;11882;42.522;27.458;2022-08-05T02:29:25;101034.97;;;23.04;83.45
23419;BME280;11882;42.522;27.458;2022-08-05T02:31:56;101027.09;;;23.02;83.14
23419;BME280;11882;42.522;27.458;2022-08-05T02:34:24;101029.22;;;23.00;82.86
23419;BME280;11882;42.522;27.458;2022-08-05T02:36:55;101035.16;;;22.97;82.51
23419;BME280;11882;42.522;27.458;2022-08-05T02:39:26;101033.78;;;22.95;82.40
23419;BME280;11882;42.522;27.458;2022-08-05T02:41:57;101029.41;;;22.94;82.92
23419;BME280;11882;42.522;27.458;2022-08-05T02:44:27;101031.88;;;22.95;82.69
23419;BME280;11882;42.522;27.458;2022-08-05T02:46:56;101036.22;;;22.96;82.25
23419;BME280;11882;42.522;27.458;2022-08-05T02:49:24;101032.44;;;22.97;82.00
23419;BME280;11882;42.522;27.458;2022-08-05T02:51:53;101033.84;;;23.00;82.41
23419;BME280;11882;42.522;27.458;2022-08-05T02:54:21;101039.50;;;22.98;82.17
23419;BME280;11882;42.522;27.458;2022-08-05T02:56:49;101037.38;;;23.00;81.63
23419;BME280;11882;42.522;27.458;2022-08-05T02:59:18;101031.69;;;23.02;81.99
23419;BME280;11882;42.522;27.458;2022-08-05T03:01:48;101037.69;;;23.04;81.79
23419;BME280;11882;42.522;27.458;2022-08-05T03:04:17;101032.00;;;23.05;81.39
23419;BME280;11882;42.522;27.458;2022-08-05T03:06:45;101029.53;;;23.04;81.29
23419;BME280;11882;42.522;27.458;2022-08-05T03:09:13;101030.88;;;23.01;81.34
23419;BME280;11882;42.522;27.458;2022-08-05T03:11:41;101040.59;;;22.97;81.25
23419;BME280;11882;42.522;27.458;2022-08-05T03:14:08;101041.91;;;22.95;81.37
23419;BME280;11882;42.522;27.458;2022-08-05T03:16:35;101037.00;;;22.92;81.50
23419;BME280;11882;42.522;27.458;2022-08-05T03:19:04;101039.13;;;22.90;81.82
23419;BME280;11882;42.522;27.458;2022-08-05T03:21:31;101036.66;;;22.88;81.89
23419;BME280;11882;42.522;27.458;2022-08-05T03:23:58;101039.63;;;22.87;82.14
23419;BME280;11882;42.522;27.458;2022-08-05T03:26:26;101045.63;;;22.89;82.18
23419;BME280;11882;42.522;27.458;2022-08-05T03:28:53;101042.41;;;22.92;81.74
23419;BME280;11882;42.522;27.458;2022-08-05T03:31:20;101042.09;;;22.88;81.81
23419;BME280;11882;42.522;27.458;2022-08-05T03:33:48;101042.91;;;22.89;81.84
23419;BME280;11882;42.522;27.458;2022-08-05T03:36:16;101043.41;;;22.86;82.09
23419;BME280;11882;42.522;27.458;2022-08-05T03:38:43;101042.59;;;22.85;82.29
23419;BME280;11882;42.522;27.458;2022-08-05T03:41:10;101038.00;;;22.86;82.24
23419;BME280;11882;42.522;27.458;2022-08-05T03:43:37;101040.38;;;22.82;82.09
23419;BME280;11882;42.522;27.458;2022-08-05T03:46:04;101039.22;;;22.78;82.06
23419;BME280;11882;42.522;27.458;2022-08-05T03:48:32;101039.47;;;22.76;81.81
23419;BME280;11882;42.522;27.458;2022-08-05T03:51:09;101044.56;;;22.73;82.60
23419;BME280;11882;42.522;27.458;2022-08-05T03:53:42;101040.28;;;22.77;82.34
23419;BME280;11882;42.522;27.458;2022-08-05T03:56:19;101042.28;;;22.81;82.80
23419;BME280;11882;42.522;27.458;2022-08-05T03:58:48;101041.22;;;22.82;82.90
23419;BME280;11882;42.522;27.458;2022-08-05T04:01:18;101036.34;;;22.85;82.66
23419;BME280;11882;42.522;27.458;2022-08-05T04:03:47;101048.34;;;22.89;82.79
23419;BME280;11882;42.522;27.458;2022-08-05T04:06:16;101041.09;;;22.94;83.05
23419;BME280;11882;42.522;27.458;2022-08-05T04:08:46;101044.38;;;22.96;83.34
23419;BME280;11882;42.522;27.458;2022-08-05T04:11:13;101037.00;;;22.92;83.34
23419;BME280;11882;42.522;27.458;2022-08-05T04:13:41;101041.41;;;22.98;83.09
23419;BME280;11882;42.522;27.458;2022-08-05T04:16:08;101038.00;;;23.07;82.43
23419;BME280;11882;42.522;27.458;2022-08-05T04:18:35;101042.47;;;23.19;82.87
23419;BME280;11882;42.522;27.458;2022-08-05T04:21:04;101032.00;;;23.27;83.25
23419;BME280;11882;42.522;27.458;2022-08-05T04:23:33;101030.72;;;23.35;83.45
23419;BME280;11882;42.522;27.458;2022-08-05T04:26:02;101031.03;;;23.38;83.86
23419;BME280;11882;42.522;27.458;2022-08-05T04:28:29;101033.25;;;23.41;84.91
23419;BME280;11882;42.522;27.458;2022-08-05T04:30:57;101034.38;;;23.45;84.93
23419;BME280;11882;42.522;27.458;2022-08-05T04:33:24;101036.31;;;23.50;85.20
23419;BME280;11882;42.522;27.458;2022-08-05T04:35:51;101037.50;;;23.54;85.11
23419;BME280;11882;42.522;27.458;2022-08-05T04:38:17;101041.66;;;23.62;84.62
23419;BME280;11882;42.522;27.458;2022-08-05T04:40:45;101049.84;;;23.67;84.83
23419;BME280;11882;42.522;27.458;2022-08-05T04:43:13;101041.22;;;23.75;84.50
23419;BME280;11882;42.522;27.458;2022-08-05T04:45:40;101037.84;;;23.90;84.51
23419;BME280;11882;42.522;27.458;2022-08-05T04:48:09;101037.44;;;24.08;84.20
23419;BME280;11882;42.522;27.458;2022-08-05T04:50:40;101032.97;;;24.24;82.54
23419;BME280;11882;42.522;27.458;2022-08-05T04:53:08;101033.97;;;24.45;81.50
23419;BME280;11882;42.522;27.458;2022-08-05T04:55:37;101031.66;;;24.68;79.70
23419;BME280;11882;42.522;27.458;2022-08-05T04:58:05;101035.59;;;24.93;79.15
23419;BME280;11882;42.522;27.458;2022-08-05T05:00:34;101036.28;;;25.20;78.25
23419;BME280;11882;42.522;27.458;2022-08-05T05:03:02;101041.81;;;25.46;76.50
23419;BME280;11882;42.522;27.458;2022-08-05T05:05:29;101043.81;;;25.70;75.26
23419;BME280;11882;42.522;27.458;2022-08-05T05:08:00;101042.47;;;25.93;74.59
23419;BME280;11882;42.522;27.458;2022-08-05T05:10:27;101035.97;;;26.20;74.57
23419;BME280;11882;42.522;27.458;2022-08-05T05:12:54;101036.53;;;26.37;73.25
23419;BME280;11882;42.522;27.458;2022-08-05T05:15:21;101034.28;;;26.59;72.66
23419;BME280;11882;42.522;27.458;2022-08-05T05:17:49;101031.81;;;26.73;71.85
23419;BME280;11882;42.522;27.458;2022-08-05T05:20:16;101030.69;;;26.79;72.16
23419;BME280;11882;42.522;27.458;2022-08-05T05:22:43;101039.94;;;26.88;72.03
23419;BME280;11882;42.522;27.458;2022-08-05T05:25:11;101039.13;;;26.98;71.88
23419;BME280;11882;42.522;27.458;2022-08-05T05:27:39;101038.25;;;27.13;71.67
23419;BME280;11882;42.522;27.458;2022-08-05T05:30:07;101035.75;;;27.21;70.65
23419;BME280;11882;42.522;27.458;2022-08-05T05:32:34;101040.88;;;27.33;69.79
23419;BME280;11882;42.522;27.458;2022-08-05T05:35:02;101035.59;;;27.52;69.38
23419;BME280;11882;42.522;27.458;2022-08-05T05:37:29;101042.59;;;27.73;68.94
23419;BME280;11882;42.522;27.458;2022-08-05T05:39:56;101046.03;;;27.89;67.04
23419;BME280;11882;42.522;27.458;2022-08-05T05:42:23;101042.34;;;28.04;66.36
23419;BME280;11882;42.522;27.458;2022-08-05T05:44:50;101041.13;;;28.25;65.71
23419;BME280;11882;42.522;27.458;2022-08-05T05:47:17;101043.13;;;28.43;64.94
23419;BME280;11882;42.522;27.458;2022-08-05T05:49:44;101042.91;;;28.64;64.45
23419;BME280;11882;42.522;27.458;2022-08-05T05:52:13;101042.53;;;28.75;62.99
23419;BME280;11882;42.522;27.458;2022-08-05T05:54:40;101053.03;;;28.92;62.82
23419;BME280;11882;42.522;27.458;2022-08-05T05:57:07;101045.03;;;29.19;62.45
23419;BME280;11882;42.522;27.458;2022-08-05T05:59:33;101044.72;;;29.45;62.06
23419;BME280;11882;42.522;27.458;2022-08-05T06:02:00;101043.81;;;29.68;60.67
23419;BME280;11882;42.522;27.458;2022-08-05T06:04:27;101037.94;;;29.94;60.09
23419;BME280;11882;42.522;27.458;2022-08-05T06:06:54;101044.25;;;30.13;59.90
23419;BME280;11882;42.522;27.458;2022-08-05T06:09:23;101042.25;;;30.32;59.40
23419;BME280;11882;42.522;27.458;2022-08-05T06:11:50;101030.91;;;30.53;59.09
23419;BME280;11882;42.522;27.458;2022-08-05T06:14:17;101031.97;;;30.70;57.54
23419;BME280;11882;42.522;27.458;2022-08-05T06:16:43;101042.94;;;30.84;55.66
23419;BME280;11882;42.522;27.458;2022-08-05T06:19:10;101041.00;;;30.98;56.67
23419;BME280;11882;42.522;27.458;2022-08-05T06:21:37;101031.13;;;31.11;56.45
23419;BME280;11882;42.522;27.458;2022-08-05T06:24:05;101036.47;;;31.21;55.66
23419;BME280;11882;42.522;27.458;2022-08-05T06:26:34;101033.19;;;31.33;56.44
23419;BME280;11882;42.522;27.458;2022-08-05T06:29:01;101032.84;;;31.48;55.96
23419;BME280;11882;42.522;27.458;2022-08-05T06:31:28;101036.88;;;31.64;54.66
23419;BME280;11882;42.522;27.458;2022-08-05T06:33:55;101046.41;;;31.81;52.69
23419;BME280;11882;42.522;27.458;2022-08-05T06:36:22;101040.91;;;31.81;51.14
23419;BME280;11882;42.522;27.458;2022-08-05T06:38:49;101042.66;;;31.77;50.77
23419;BME280;11882;42.522;27.458;2022-08-05T06:41:18;101048.19;;;31.99;50.63
23419;BME280;11882;42.522;27.458;2022-08-05T06:43:47;101053.78;;;32.16;49.48
23419;BME280;11882;42.522;27.458;2022-08-05T06:46:14;101057.19;;;32.35;49.70
23419;BME280;11882;42.522;27.458;2022-08-05T06:48:41;101054.44;;;32.35;48.91
23419;BME280;11882;42.522;27.458;2022-08-05T06:51:08;101054.03;;;32.51;49.06
23419;BME280;11882;42.522;27.458;2022-08-05T06:53:35;101056.50;;;32.61;48.52
23419;BME280;11882;42.522;27.458;2022-08-05T06:56:03;101053.22;;;32.81;46.84
23419;BME280;11882;42.522;27.458;2022-08-05T06:58:30;101055.69;;;32.91;46.82
23419;BME280;11882;42.522;27.458;2022-08-05T07:01:00;101054.72;;;32.96;47.40
23419;BME280;11882;42.522;27.458;2022-08-05T07:03:27;101062.84;;;33.01;47.44
23419;BME280;11882;42.522;27.458;2022-08-05T07:05:55;101065.63;;;33.10;46.52
23419;BME280;11882;42.522;27.458;2022-08-05T07:08:22;101065.63;;;33.10;45.50
23419;BME280;11882;42.522;27.458;2022-08-05T07:10:49;101066.78;;;33.09;46.53
23419;BME280;11882;42.522;27.458;2022-08-05T07:13:16;101064.84;;;33.18;45.92
23419;BME280;11882;42.522;27.458;2022-08-05T07:16:02;101059.16;;;33.23;46.00
23419;BME280;11882;42.522;27.458;2022-08-05T07:18:47;101059.03;;;33.28;45.96
23419;BME280;11882;42.522;27.458;2022-08-05T07:21:14;101066.28;;;33.15;46.20
23419;BME280;11882;42.522;27.458;2022-08-05T07:23:41;101056.69;;;33.04;46.24
23419;BME280;11882;42.522;27.458;2022-08-05T07:26:08;101058.50;;;33.09;46.58
23419;BME280;11882;42.522;27.458;2022-08-05T07:28:35;101062.53;;;33.03;46.36
23419;BME280;11882;42.522;27.458;2022-08-05T07:31:03;101060.41;;;32.99;45.91
23419;BME280;11882;42.522;27.458;2022-08-05T07:33:32;101062.47;;;32.85;46.14
23419;BME280;11882;42.522;27.458;2022-08-05T07:35:59;101060.34;;;32.82;47.26
23419;BME280;11882;42.522;27.458;2022-08-05T07:38:26;101059.88;;;32.80;47.62
23419;BME280;11882;42.522;27.458;2022-08-05T07:40:53;101060.75;;;32.67;48.13
23419;BME280;11882;42.522;27.458;2022-08-05T07:43:20;101052.75;;;32.57;48.71
23419;BME280;11882;42.522;27.458;2022-08-05T07:45:47;101052.81;;;32.34;49.65
23419;BME280;11882;42.522;27.458;2022-08-05T07:48:15;101052.75;;;32.26;50.51
23419;BME280;11882;42.522;27.458;2022-08-05T07:50:42;101065.09;;;32.28;50.36
23419;BME280;11882;42.522;27.458;2022-08-05T07:53:09;101053.16;;;32.19;50.23
23419;BME280;11882;42.522;27.458;2022-08-05T07:55:36;101048.94;;;31.91;51.06
23419;BME280;11882;42.522;27.458;2022-08-05T07:58:03;101056.75;;;31.97;51.54
23419;BME280;11882;42.522;27.458;2022-08-05T08:00:30;101052.63;;;32.09;50.43
23419;BME280;11882;42.522;27.458;2022-08-05T08:02:57;101065.75;;;32.12;51.50
23419;BME280;11882;42.522;27.458;2022-08-05T08:05:26;101059.31;;;32.16;50.16
23419;BME280;11882;42.522;27.458;2022-08-05T08:07:53;101059.75;;;32.10;50.45
23419;BME280;11882;42.522;27.458;2022-08-05T08:10:20;101058.44;;;32.07;50.70
23419;BME280;11882;42.522;27.458;2022-08-05T08:12:47;101054.19;;;32.23;51.12
23419;BME280;11882;42.522;27.458;2022-08-05T08:15:15;101052.81;;;32.34;50.94
23419;BME280;11882;42.522;27.458;2022-08-05T08:17:43;101061.38;;;32.33;50.54
23419;BME280;11882;42.522;27.458;2022-08-05T08:20:10;101056.06;;;32.36;50.63
23419;BME280;11882;42.522;27.458;2022-08-05T08:22:38;101055.19;;;32.27;50.02
23419;BME280;11882;42.522;27.458;2022-08-05T08:25:07;101059.19;;;32.44;50.61
23419;BME280;11882;42.522;27.458;2022-08-05T08:27:34;101050.72;;;32.40;52.07
23419;BME280;11882;42.522;27.458;2022-08-05T08:30:02;101057.63;;;32.29;52.09
23419;BME280;11882;42.522;27.458;2022-08-05T08:32:29;101057.63;;;32.07;52.48
23419;BME280;11882;42.522;27.458;2022-08-05T08:34:59;101056.81;;;32.06;52.18
23419;BME280;11882;42.522;27.458;2022-08-05T08:37:26;101056.88;;;31.92;52.46
23419;BME280;11882;42.522;27.458;2022-08-05T08:39:54;101056.50;;;31.85;52.38
23419;BME280;11882;42.522;27.458;2022-08-05T08:42:21;101052.00;;;31.89;53.12
23419;BME280;11882;42.522;27.458;2022-08-05T08:44:49;101042.59;;;31.90;52.00
23419;BME280;11882;42.522;27.458;2022-08-05T08:47:21;101033.72;;;31.93;52.88
23419;BME280;11882;42.522;27.458;2022-08-05T08:49:51;101036.34;;;31.98;53.02
23419;BME280;11882;42.522;27.458;2022-08-05T08:52:22;101037.34;;;32.02;52.96
23419;BME280;11882;42.522;27.458;2022-08-05T08:54:52;101031.66;;;31.99;53.93
23419;BME280;11882;42.522;27.458;2022-08-05T08:57:21;101040.78;;;32.08;52.63
23419;BME280;11882;42.522;27.458;2022-08-05T08:59:49;101029.81;;;32.17;53.17
23419;BME280;11882;42.522;27.458;2022-08-05T09:02:18;101039.22;;;32.38;53.37
23419;BME280;11882;42.522;27.458;2022-08-05T09:04:46;101033.38;;;32.40;53.49
23419;BME280;11882;42.522;27.458;2022-08-05T09:07:13;101036.78;;;32.36;53.29
23419;BME280;11882;42.522;27.458;2022-08-05T09:09:41;101044.81;;;32.24;53.82
23419;BME280;11882;42.522;27.458;2022-08-05T09:12:09;101038.66;;;32.05;54.79
23419;BME280;11882;42.522;27.458;2022-08-05T09:14:39;101030.41;;;32.05;55.20
23419;BME280;11882;42.522;27.458;2022-08-05T09:17:08;101031.09;;;31.88;55.11
23419;BME280;11882;42.522;27.458;2022-08-05T09:19:37;101033.41;;;31.95;54.50
23419;BME280;11882;42.522;27.458;2022-08-05T09:22:04;101025.34;;;31.76;55.92
23419;BME280;11882;42.522;27.458;2022-08-05T09:24:34;101022.22;;;31.55;55.58
23419;BME280;11882;42.522;27.458;2022-08-05T09:27:07;101021.22;;;31.51;56.06
23419;BME280;11882;42.522;27.458;2022-08-05T09:29:40;101019.78;;;31.54;55.91
23419;BME280;11882;42.522;27.458;2022-08-05T09:32:10;101016.56;;;31.38;57.08
23419;BME280;11882;42.522;27.458;2022-08-05T09:34:51;101012.06;;;31.42;57.05
23419;BME280;11882;42.522;27.458;2022-08-05T09:37:19;101018.53;;;31.60;55.10
23419;BME280;11882;42.522;27.458;2022-08-05T09:39:46;101005.47;;;31.65;56.11
23419;BME280;11882;42.522;27.458;2022-08-05T09:42:14;101028.41;;;31.75;55.27
23419;BME280;11882;42.522;27.458;2022-08-05T09:44:44;101012.28;;;31.46;55.87
23419;BME280;11882;42.522;27.458;2022-08-05T09:47:13;101019.09;;;31.48;55.84
23419;BME280;11882;42.522;27.458;2022-08-05T09:49:42;101010.78;;;31.26;55.38
23419;BME280;11882;42.522;27.458;2022-08-05T09:52:17;100997.63;;;31.09;56.42
23419;BME280;11882;42.522;27.458;2022-08-05T09:54:52;100997.75;;;31.18;56.58
23419;BME280;11882;42.522;27.458;2022-08-05T09:57:30;100994.59;;;31.24;56.15
23419;BME280;11882;42.522;27.458;2022-08-05T10:00:00;100993.97;;;31.27;56.05
23419;BME280;11882;42.522;27.458;2022-08-05T10:02:35;100987.97;;;31.25;54.76
23419;BME280;11882;42.522;27.458;2022-08-05T10:05:04;100999.91;;;31.21;55.23
23419;BME280;11882;42.522;27.458;2022-08-05T10:07:46;101004.28;;;31.22;54.68
23419;BME280;11882;42.522;27.458;2022-08-05T10:10:13;100991.53;;;31.26;54.59
23419;BME280;11882;42.522;27.458;2022-08-05T10:12:42;101003.94;;;31.37;55.04
23419;BME280;11882;42.522;27.458;2022-08-05T10:15:15;101000.69;;;31.35;54.04
23419;BME280;11882;42.522;27.458;2022-08-05T10:17:43;101000.50;;;31.31;54.59
23419;BME280;11882;42.522;27.458;2022-08-05T10:20:10;100998.78;;;30.94;56.46
23419;BME280;11882;42.522;27.458;2022-08-05T10:22:39;100987.25;;;30.92;57.32
23419;BME280;11882;42.522;27.458;2022-08-05T10:25:06;100996.44;;;30.74;57.42
23419;BME280;11882;42.522;27.458;2022-08-05T10:27:34;100999.81;;;30.71;57.91
23419;BME280;11882;42.522;27.458;2022-08-05T10:30:01;101001.84;;;30.79;59.02
23419;BME280;11882;42.522;27.458;2022-08-05T10:32:32;100997.88;;;30.85;58.68
23419;BME280;11882;42.522;27.458;2022-08-05T10:34:59;100993.28;;;30.94;58.26
23419;BME280;11882;42.522;27.458;2022-08-05T10:37:27;101018.00;;;30.81;57.61
23419;BME280;11882;42.522;27.458;2022-08-05T10:39:59;101003.06;;;30.87;58.32
23419;BME280;11882;42.522;27.458;2022-08-05T10:42:31;100990.53;;;30.94;57.51
23419;BME280;11882;42.522;27.458;2022-08-05T10:45:01;100999.09;;;30.79;56.91
23419;BME280;11882;42.522;27.458;2022-08-05T10:47:33;100999.19;;;30.74;57.37
23419;BME280;11882;42.522;27.458;2022-08-05T10:50:06;101002.94;;;30.64;58.05
23419;BME280;11882;42.522;27.458;2022-08-05T10:52:39;101001.53;;;30.67;58.08
23419;BME280;11882;42.522;27.458;2022-08-05T10:55:08;100994.41;;;30.66;57.88
23419;BME280;11882;42.522;27.458;2022-08-05T10:57:35;100993.25;;;30.53;58.44
23419;BME280;11882;42.522;27.458;2022-08-05T11:00:07;100985.41;;;30.46;58.50
23419;BME280;11882;42.522;27.458;2022-08-05T11:02:36;100987.25;;;30.51;58.75
23419;BME280;11882;42.522;27.458;2022-08-05T11:05:07;100974.94;;;30.48;59.04
23419;BME280;11882;42.522;27.458;2022-08-05T11:07:54;100976.66;;;30.44;58.74
23419;BME280;11882;42.522;27.458;2022-08-05T11:10:22;100973.19;;;30.39;59.74
23419;BME280;11882;42.522;27.458;2022-08-05T11:12:49;100978.91;;;30.42;60.66
23419;BME280;11882;42.522;27.458;2022-08-05T11:15:19;100969.22;;;30.31;60.64
23419;BME280;11882;42.522;27.458;2022-08-05T11:17:48;100973.69;;;30.27;61.35
23419;BME280;11882;42.522;27.458;2022-08-05T11:20:34;100968.91;;;30.33;61.28
23419;BME280;11882;42.522;27.458;2022-08-05T11:23:33;100979.50;;;30.39;61.84
23419;BME280;11882;42.522;27.458;2022-08-05T11:26:05;100983.34;;;30.25;62.13
23419;BME280;11882;42.522;27.458;2022-08-05T11:28:37;100974.38;;;30.05;62.46
23419;BME280;11882;42.522;27.458;2022-08-05T11:31:27;100973.47;;;30.10;63.49
23419;BME280;11882;42.522;27.458;2022-08-05T11:34:05;100974.97;;;30.02;63.29
23419;BME280;11882;42.522;27.458;2022-08-05T11:36:47;100968.69;;;29.83;64.12
23419;BME280;11882;42.522;27.458;2022-08-05T11:39:45;100965.13;;;29.82;64.18
23419;BME280;11882;42.522;27.458;2022-08-05T11:42:04;100969.13;;;29.90;63.60
23419;BME280;11882;42.522;27.458;2022-08-05T11:44:36;100972.97;;;29.89;63.25
23419;BME280;11882;42.522;27.458;2022-08-05T11:47:04;100973.06;;;29.84;63.69
23419;BME280;11882;42.522;27.458;2022-08-05T11:49:33;100959.22;;;29.75;63.92
23419;BME280;11882;42.522;27.458;2022-08-05T11:52:00;100958.09;;;29.76;64.24
23419;BME280;11882;42.522;27.458;2022-08-05T11:54:29;100958.56;;;29.65;63.99
23419;BME280;11882;42.522;27.458;2022-08-05T11:56:59;100958.78;;;29.68;64.54
23419;BME280;11882;42.522;27.458;2022-08-05T11:59:27;100957.16;;;29.67;65.14
23419;BME280;11882;42.522;27.458;2022-08-05T12:01:57;100952.69;;;29.71;64.74
23419;BME280;11882;42.522;27.458;2022-08-05T12:04:26;100949.94;;;29.71;65.18
23419;BME280;11882;42.522;27.458;2022-08-05T12:06:58;100951.38;;;29.69;64.47
23419;BME280;11882;42.522;27.458;2022-08-05T12:09:28;100959.16;;;29.62;65.53
23419;BME280;11882;42.522;27.458;2022-08-05T12:11:55;100953.75;;;29.57;65.13
23419;BME280;11882;42.522;27.458;2022-08-05T12:14:22;100952.22;;;29.50;65.54
23419;BME280;11882;42.522;27.458;2022-08-05T12:16:50;100952.81;;;29.47;64.96
23419;BME280;11882;42.522;27.458;2022-08-05T12:19:16;100949.47;;;29.50;65.33
23419;BME280;11882;42.522;27.458;2022-08-05T12:21:46;100949.69;;;29.54;65.84
23419;BME280;11882;42.522;27.458;2022-08-05T12:24:16;100958.50;;;29.51;66.11
23419;BME280;11882;42.522;27.458;2022-08-05T12:26:45;100958.88;;;29.44;66.25
23419;BME280;11882;42.522;27.458;2022-08-05T12:29:14;100960.25;;;29.42;65.81
23419;BME280;11882;42.522;27.458;2022-08-05T12:31:46;100947.09;;;29.44;65.55
23419;BME280;11882;42.522;27.458;2022-08-05T12:34:15;100942.44;;;29.44;64.88
23419;BME280;11882;42.522;27.458;2022-08-05T12:36:42;100936.44;;;29.42;64.90
23419;BME280;11882;42.522;27.458;2022-08-05T12:39:10;100932.94;;;29.37;64.18
23419;BME280;11882;42.522;27.458;2022-08-05T12:41:40;100944.88;;;29.46;64.30
23419;BME280;11882;42.522;27.458;2022-08-05T12:44:09;100933.31;;;29.49;64.41
23419;BME280;11882;42.522;27.458;2022-08-05T12:46:38;100929.47;;;29.50;62.90
23419;BME280;11882;42.522;27.458;2022-08-05T12:49:07;100929.53;;;29.45;63.11
23419;BME280;11882;42.522;27.458;2022-08-05T12:51:45;100936.66;;;29.46;63.24